Terminal Aerodrome Forecast
Issued by NWS

Home | Current Version | Previous Version | Text Only | Print | Product List | Glossary On
Versions: 1 2 3 4 5 6 7 8 9 10 11 12 13 14 15
825
FTUS46 KSEW 110520
TAFPAE
TAF
KPAE 110520Z 1106/1206 15006KT P6SM OVC015
     FM110900 12006KT P6SM BKN018 BKN050
     FM111300 12008KT P6SM BKN050
     FM112100 14010KT P6SM -RA OVC045
     FM120200 16010KT 5SM -RA OVC035=

USA.gov is the U.S. government's official web portal to all federal, state and local government web resources and services.